Terminal Aerodrome Forecast
Issued by NWS

Home | Current Version | Previous Version | Text Only | Print | Product List | Glossary Off
Versions: 1 2 3 4 5 6 7 8 9 10 11 12 13 14 15 16 17

000
FTUS43 KGRB 202240 AAA
TAFRHI
TAF AMD
KRHI 202240Z 2023/2118 33006KT 6SM -DZ BR BKN012 OVC020
      TEMPO 2023/2101 3SM -RA BR OVC009
     FM210100 33009KT 6SM BR OVC008
      TEMPO 2101/2105 4SM -RASN BR
     FM210500 32009KT P6SM BKN008 OVC015
     FM211200 33010KT P6SM OVC010
     FM211500 34011KT P6SM BKN020
      TEMPO 2115/2118 SCT020=

USA.gov is the U.S. government's official web portal to all federal, state and local government web resources and services.